Time;durP1;ratioP1;P1;durP2;ratioP2;P2;SDS_P1;SDS_P2;PMS_P1;PMS_P2;Temp;Humidity;BMP_temperature;BMP_pressure;BME280_temperature;BME280_humidity;BME280_pressure;Samples;Min_cycle;Max_cycle;Signal;HPM_P1;HPM_P2
2021/05/26 00:00:52;;;;;;;6.57;2.40;;;;;;;;;;5033248;28;20096;-82
2021/05/26 00:03:23;;;;;;;6.82;2.38;;;;;;;;;;5033094;28;20049;-81
2021/05/26 00:05:50;;;;;;;3.97;2.50;;;;;;;;;;5031879;28;20124;-81
2021/05/26 00:08:27;;;;;;;6.60;2.50;;;;;;;;;;5032897;28;20444;-81
2021/05/26 00:11:06;;;;;;;5.78;3.22;;;;;;;;;;5032518;28;20088;-81
2021/05/26 00:13:34;;;;;;;6.30;2.80;;;;;;;;;;5032882;28;20049;-81
2021/05/26 00:16:12;;;;;;;8.90;2.67;;;;;;;;;;5032887;28;20080;-81
2021/05/26 00:18:45;;;;;;;9.48;2.70;;;;;;;;;;5033147;28;20080;-81
2021/05/26 00:21:13;;;;;;;4.88;2.65;;;;;;;;;;5019858;28;20458;-81
2021/05/26 00:23:40;;;;;;;7.53;2.88;;;;;;;;;;5013206;28;20073;-81
2021/05/26 00:26:21;;;;;;;6.95;3.10;;;;;;;;;;5014122;28;20096;-82
2021/05/26 00:28:49;;;;;;;5.97;2.90;;;;;;;;;;5011080;28;20133;-82
2021/05/26 00:31:20;;;;;;;9.02;2.85;;;;;;;;;;5010968;28;20670;-82
2021/05/26 00:33:48;;;;;;;4.13;2.67;;;;;;;;;;5010714;28;20056;-81
2021/05/26 00:36:15;;;;;;;5.47;2.80;;;;;;;;;;5027191;28;20074;-82
2021/05/26 00:38:45;;;;;;;6.68;3.13;;;;;;;;;;5029938;28;20141;-83
2021/05/26 00:41:12;;;;;;;7.70;3.05;;;;;;;;;;5029593;28;20081;-82
2021/05/26 00:43:39;;;;;;;9.80;3.17;;;;;;;;;;5030438;28;20117;-82
2021/05/26 00:46:07;;;;;;;7.40;3.13;;;;;;;;;;5030902;28;20041;-81
2021/05/26 00:48:34;;;;;;;4.80;3.17;;;;;;;;;;5031508;28;20129;-82
2021/05/26 00:51:01;;;;;;;6.63;3.28;;;;;;;;;;5030670;28;20053;-82
2021/05/26 00:53:30;;;;;;;8.27;3.58;;;;;;;;;;5031719;28;20045;-82
2021/05/26 00:59:27;;;;;;;5.63;3.72;;;;;;;;;;5031178;28;20048;-78
2021/05/26 01:01:54;;;;;;;7.03;4.18;;;;;;;;;;5029792;28;20041;-78
2021/05/26 01:04:21;;;;;;;8.27;4.47;;;;;;;;;;5027524;28;20077;-79
2021/05/26 01:06:49;;;;;;;9.40;5.28;;;;;;;;;;5029772;28;20096;-79
2021/05/26 01:09:16;;;;;;;11.73;5.13;;;;;;;;;;5028256;28;20711;-78
2021/05/26 01:11:44;;;;;;;8.30;5.10;;;;;;;;;;5027118;28;20697;-78
2021/05/26 01:14:11;;;;;;;11.23;5.75;;;;;;;;;;5027300;28;20041;-78
2021/05/26 01:16:38;;;;;;;13.40;6.70;;;;;;;;;;5028647;28;20123;-79
2021/05/26 01:19:05;;;;;;;9.27;6.22;;;;;;;;;;5028459;28;20046;-78
2021/05/26 01:21:33;;;;;;;14.18;7.22;;;;;;;;;;5029697;28;20140;-79
2021/05/26 01:24:00;;;;;;;12.10;7.25;;;;;;;;;;5029347;28;20445;-79
2021/05/26 01:26:28;;;;;;;12.63;6.70;;;;;;;;;;5025501;28;20075;-79
2021/05/26 01:28:55;;;;;;;11.43;6.90;;;;;;;;;;5029473;28;20053;-79
2021/05/26 01:31:23;;;;;;;12.73;7.72;;;;;;;;;;5028635;28;20083;-80
2021/05/26 01:33:51;;;;;;;15.35;7.38;;;;;;;;;;5029539;28;20445;-79
2021/05/26 01:36:18;;;;;;;13.27;7.65;;;;;;;;;;5027577;28;20084;-79
2021/05/26 01:38:45;;;;;;;14.55;8.07;;;;;;;;;;5028927;28;20732;-79
2021/05/26 01:41:12;;;;;;;14.32;7.38;;;;;;;;;;5028844;28;20069;-79
2021/05/26 01:43:41;;;;;;;13.65;8.43;;;;;;;;;;5029191;28;20191;-78
2021/05/26 01:46:08;;;;;;;13.23;8.68;;;;;;;;;;5029699;28;20152;-79
2021/05/26 01:48:35;;;;;;;12.65;8.27;;;;;;;;;;5028105;28;20057;-79
2021/05/26 01:51:03;;;;;;;13.65;8.65;;;;;;;;;;5030974;28;20076;-79
2021/05/26 01:53:32;;;;;;;19.33;9.27;;;;;;;;;;5031732;28;20100;-78
2021/05/26 01:55:59;;;;;;;14.52;8.40;;;;;;;;;;5032122;28;20137;-79
2021/05/26 01:58:27;;;;;;;15.65;9.20;;;;;;;;;;5033202;28;20049;-79
2021/05/26 02:00:54;;;;;;;15.63;9.30;;;;;;;;;;5032825;28;20148;-79
2021/05/26 02:03:21;;;;;;;15.70;9.63;;;;;;;;;;5031374;28;20056;-79
2021/05/26 02:05:50;;;;;;;14.23;8.20;;;;;;;;;;5027013;28;20053;-79
2021/05/26 02:08:17;;;;;;;18.65;9.23;;;;;;;;;;5032888;28;20045;-79
2021/05/26 02:13:30;;;;;;;;;;;;;;;;;;5032982;28;20053;-79
2021/05/26 02:15:57;;;;;;;15.57;8.90;;;;;;;;;;5032057;28;19974;-79
2021/05/26 02:18:24;;;;;;;19.10;9.75;;;;;;;;;;5031954;28;20084;-79
2021/05/26 02:20:52;;;;;;;15.02;9.73;;;;;;;;;;5031089;28;20661;-78
2021/05/26 02:23:19;;;;;;;15.57;9.60;;;;;;;;;;5024486;28;20077;-79
2021/05/26 02:25:46;;;;;;;17.10;10.93;;;;;;;;;;5011707;28;20558;-79
2021/05/26 02:28:14;;;;;;;17.45;10.05;;;;;;;;;;5010888;28;20127;-79
2021/05/26 02:30:42;;;;;;;19.80;9.70;;;;;;;;;;5011108;28;20157;-78
2021/05/26 02:33:09;;;;;;;15.68;9.25;;;;;;;;;;5029890;28;20084;-78
2021/05/26 02:35:36;;;;;;;17.58;10.38;;;;;;;;;;5030312;28;20763;-78
2021/05/26 02:38:04;;;;;;;18.35;10.48;;;;;;;;;;5016166;28;20702;-79
2021/05/26 02:40:33;;;;;;;16.42;9.10;;;;;;;;;;5010894;28;20053;-78
2021/05/26 02:43:01;;;;;;;16.38;9.98;;;;;;;;;;5010744;28;20062;-79
2021/05/26 02:45:28;;;;;;;16.95;9.88;;;;;;;;;;5011790;28;20085;-79
2021/05/26 02:47:55;;;;;;;16.77;10.80;;;;;;;;;;5011722;28;20077;-79
2021/05/26 02:50:24;;;;;;;16.10;9.85;;;;;;;;;;5014361;28;20076;-78
2021/05/26 02:52:52;;;;;;;15.30;10.32;;;;;;;;;;5031394;28;20153;-78
2021/05/26 02:55:20;;;;;;;16.92;9.57;;;;;;;;;;5031742;28;20087;-79
2021/05/26 02:57:48;;;;;;;14.60;9.68;;;;;;;;;;5030427;28;20049;-79
2021/05/26 03:00:16;;;;;;;18.23;9.88;;;;;;;;;;5030084;28;20092;-78
2021/05/26 03:02:43;;;;;;;17.33;10.35;;;;;;;;;;5024643;28;20046;-79
2021/05/26 03:05:11;;;;;;;14.90;10.02;;;;;;;;;;5027157;28;20618;-78
2021/05/26 03:07:39;;;;;;;14.55;9.57;;;;;;;;;;5030120;28;20371;-78
2021/05/26 03:10:06;;;;;;;23.30;10.75;;;;;;;;;;5030358;28;20131;-78
2021/05/26 03:12:34;;;;;;;18.05;9.75;;;;;;;;;;5031016;28;20769;-78
2021/05/26 03:15:02;;;;;;;21.05;9.82;;;;;;;;;;5029395;28;20049;-79
2021/05/26 03:17:29;;;;;;;14.70;9.85;;;;;;;;;;5018405;28;20140;-78
2021/05/26 03:19:56;;;;;;;18.77;10.00;;;;;;;;;;5010684;28;20438;-78
2021/05/26 03:22:24;;;;;;;14.32;9.77;;;;;;;;;;5010917;28;20514;-78
2021/05/26 03:24:51;;;;;;;15.73;10.20;;;;;;;;;;5010140;28;20085;-79
2021/05/26 03:27:20;;;;;;;15.77;10.52;;;;;;;;;;5011657;28;20751;-79
2021/05/26 03:29:48;;;;;;;15.45;9.80;;;;;;;;;;5009828;28;20141;-79
2021/05/26 03:32:15;;;;;;;20.08;10.63;;;;;;;;;;5028285;28;20096;-79
2021/05/26 03:34:43;;;;;;;21.35;11.45;;;;;;;;;;5030834;28;20132;-79
2021/05/26 03:37:13;;;;;;;15.18;10.00;;;;;;;;;;5030694;28;20057;-79
2021/05/26 03:39:41;;;;;;;21.48;10.75;;;;;;;;;;5029537;28;20152;-79
2021/05/26 03:42:08;;;;;;;16.90;11.00;;;;;;;;;;5031545;28;20228;-80
2021/05/26 03:44:35;;;;;;;15.90;10.88;;;;;;;;;;5030912;28;20053;-80
2021/05/26 03:47:02;;;;;;;15.90;10.60;;;;;;;;;;5031399;28;20127;-80
2021/05/26 03:49:30;;;;;;;15.23;9.88;;;;;;;;;;5031520;28;20050;-81
2021/05/26 03:51:57;;;;;;;16.63;10.30;;;;;;;;;;5032420;28;20084;-81
2021/05/26 03:54:24;;;;;;;18.60;10.23;;;;;;;;;;5032026;28;20112;-80
2021/05/26 03:56:51;;;;;;;15.07;9.65;;;;;;;;;;5031602;28;20068;-81
2021/05/26 03:59:19;;;;;;;15.25;9.38;;;;;;;;;;5031376;28;20094;-81
2021/05/26 04:01:47;;;;;;;14.35;9.40;;;;;;;;;;5032159;28;20128;-80
2021/05/26 04:04:14;;;;;;;14.30;9.07;;;;;;;;;;5031308;28;20445;-79
2021/05/26 04:06:42;;;;;;;24.60;9.65;;;;;;;;;;5025467;28;20609;-80
2021/05/26 04:09:09;;;;;;;23.33;10.43;;;;;;;;;;5012839;28;20124;-80
2021/05/26 04:11:38;;;;;;;17.25;9.45;;;;;;;;;;5012767;28;20132;-80
2021/05/26 04:14:05;;;;;;;15.80;10.88;;;;;;;;;;5028243;28;20057;-80
2021/05/26 04:16:32;;;;;;;18.05;10.50;;;;;;;;;;5031331;28;20497;-80
2021/05/26 04:19:02;;;;;;;17.08;10.65;;;;;;;;;;5032480;28;20050;-80
2021/05/26 04:21:30;;;;;;;22.17;11.60;;;;;;;;;;5032436;28;20072;-80
2021/05/26 04:24:05;;;;;;;25.67;12.15;;;;;;;;;;5031904;28;20866;-81
2021/05/26 04:26:32;;;;;;;19.15;11.35;;;;;;;;;;5032513;28;20045;-81
2021/05/26 04:28:59;;;;;;;23.65;12.90;;;;;;;;;;5031903;28;20103;-81
2021/05/26 04:31:34;;;;;;;22.20;11.90;;;;;;;;;;5033278;28;20061;-81
2021/05/26 04:34:02;;;;;;;22.42;12.65;;;;;;;;;;5031971;28;20083;-81
2021/05/26 04:36:31;;;;;;;21.58;12.95;;;;;;;;;;5031933;28;20100;-81
2021/05/26 04:38:58;;;;;;;23.98;13.70;;;;;;;;;;5030703;28;20115;-81
2021/05/26 04:41:26;;;;;;;19.35;11.85;;;;;;;;;;5032099;28;20096;-81
2021/05/26 04:43:53;;;;;;;20.95;14.27;;;;;;;;;;5031828;28;20661;-81
2021/05/26 04:46:20;;;;;;;23.35;15.05;;;;;;;;;;5032113;28;20512;-82
2021/05/26 04:48:52;;;;;;;25.27;13.70;;;;;;;;;;5032037;28;20149;-81
2021/05/26 04:51:19;;;;;;;27.77;14.23;;;;;;;;;;5030904;28;20049;-82
2021/05/26 04:53:56;;;;;;;26.90;14.00;;;;;;;;;;5032670;28;20100;-82
2021/05/26 04:56:24;;;;;;;26.20;14.27;;;;;;;;;;5030161;28;20041;-82
2021/05/26 04:58:52;;;;;;;22.83;13.40;;;;;;;;;;5031704;28;20077;-83
2021/05/26 05:01:21;;;;;;;25.05;14.98;;;;;;;;;;5020379;28;20042;-83
2021/05/26 05:03:52;;;;;;;31.10;13.85;;;;;;;;;;5026265;28;20042;-84
2021/05/26 05:06:21;;;;;;;23.42;13.52;;;;;;;;;;5027876;28;20045;-80
2021/05/26 05:08:48;;;;;;;19.08;12.68;;;;;;;;;;5032733;28;20049;-79
2021/05/26 05:11:15;;;;;;;19.35;12.73;;;;;;;;;;5030393;28;20140;-91
2021/05/26 05:13:43;;;;;;;21.33;13.20;;;;;;;;;;5032276;28;20046;-79
2021/05/26 05:16:11;;;;;;;20.60;13.13;;;;;;;;;;5030504;28;20077;-81
2021/05/26 05:18:38;;;;;;;19.85;13.20;;;;;;;;;;5030547;28;20076;-88
2021/05/26 05:21:06;;;;;;;17.90;12.25;;;;;;;;;;5030736;28;20100;-82
2021/05/26 05:23:37;;;;;;;27.10;13.07;;;;;;;;;;5029950;28;20536;-81
2021/05/26 05:26:04;;;;;;;20.60;13.48;;;;;;;;;;5032010;28;20041;-79
2021/05/26 05:28:31;;;;;;;29.52;13.98;;;;;;;;;;5029883;28;20076;-80
2021/05/26 05:30:58;;;;;;;20.95;12.00;;;;;;;;;;5030824;28;20116;-80
2021/05/26 05:33:26;;;;;;;29.77;15.45;;;;;;;;;;5029661;28;20497;-82
2021/05/26 05:35:54;;;;;;;26.95;13.45;;;;;;;;;;5026755;28;20049;-87
2021/05/26 05:38:21;;;;;;;24.98;13.38;;;;;;;;;;5012060;28;20517;-92
2021/05/26 05:40:49;;;;;;;24.83;15.23;;;;;;;;;;5014015;28;20050;-85
2021/05/26 05:43:16;;;;;;;25.15;13.35;;;;;;;;;;5011907;28;20104;-85
2021/05/26 05:45:50;;;;;;;29.35;13.70;;;;;;;;;;5009109;28;20054;-86
2021/05/26 05:48:18;;;;;;;32.33;14.45;;;;;;;;;;5009895;28;20470;-85
2021/05/26 05:50:45;;;;;;;34.58;21.00;;;;;;;;;;5009775;28;20692;-86
2021/05/26 05:53:13;;;;;;;26.42;16.45;;;;;;;;;;5009732;28;20085;-85
2021/05/26 05:55:41;;;;;;;29.27;14.85;;;;;;;;;;5009359;28;20092;-85
2021/05/26 05:58:10;;;;;;;18.98;12.90;;;;;;;;;;5025283;28;20132;-85
2021/05/26 06:00:45;;;;;;;25.27;12.73;;;;;;;;;;5030925;28;20160;-85
2021/05/26 06:03:12;;;;;;;18.27;12.40;;;;;;;;;;5027453;28;20041;-85
2021/05/26 06:05:40;;;;;;;25.60;13.00;;;;;;;;;;5028992;28;20046;-84
2021/05/26 06:08:07;;;;;;;24.35;13.13;;;;;;;;;;5030400;28;20553;-84
2021/05/26 06:10:34;;;;;;;20.40;13.55;;;;;;;;;;5028562;28;20174;-85
2021/05/26 06:13:07;;;;;;;28.13;14.95;;;;;;;;;;5029597;28;20054;-86
2021/05/26 06:15:35;;;;;;;17.90;10.90;;;;;;;;;;5029079;28;20046;-86
2021/05/26 06:18:02;;;;;;;15.77;9.82;;;;;;;;;;5029294;28;20056;-87
2021/05/26 06:20:30;;;;;;;17.00;9.07;;;;;;;;;;5029499;28;20057;-87
2021/05/26 06:22:57;;;;;;;12.27;9.35;;;;;;;;;;5031045;28;20124;-87
2021/05/26 06:25:24;;;;;;;14.15;9.13;;;;;;;;;;5029008;28;20128;-86
2021/05/26 06:27:51;;;;;;;14.80;9.65;;;;;;;;;;5010422;28;20414;-87
2021/05/26 06:30:19;;;;;;;13.38;8.68;;;;;;;;;;5026525;28;20519;-88
2021/05/26 06:32:46;;;;;;;19.05;9.02;;;;;;;;;;5018856;28;20049;-87
2021/05/26 06:35:13;;;;;;;15.43;9.88;;;;;;;;;;5033010;28;20195;-87
2021/05/26 06:37:42;;;;;;;17.25;9.32;;;;;;;;;;5033362;28;20132;-88
2021/05/26 06:40:09;;;;;;;13.80;8.52;;;;;;;;;;5034727;28;20053;-88
2021/05/26 06:42:46;;;;;;;15.10;8.25;;;;;;;;;;5033491;28;20056;-89
2021/05/26 06:45:14;;;;;;;16.42;8.75;;;;;;;;;;5032845;28;20083;-89
2021/05/26 06:47:41;;;;;;;11.55;8.65;;;;;;;;;;5034317;28;20099;-88
2021/05/26 06:50:09;;;;;;;20.80;9.32;;;;;;;;;;5033158;28;20097;-88
2021/05/26 06:52:37;;;;;;;15.63;8.63;;;;;;;;;;5032651;28;20092;-87
2021/05/26 06:55:06;;;;;;;12.60;9.27;;;;;;;;;;5033793;28;20049;-88
2021/05/26 06:57:34;;;;;;;13.68;7.13;;;;;;;;;;5034348;28;20138;-86
2021/05/26 07:00:01;;;;;;;9.35;6.45;;;;;;;;;;5034119;28;20041;-87
2021/05/26 07:02:28;;;;;;;11.30;6.07;;;;;;;;;;5033809;28;20080;-86
2021/05/26 07:04:56;;;;;;;7.70;4.80;;;;;;;;;;5033936;28;20104;-86
2021/05/26 07:07:23;;;;;;;9.23;4.82;;;;;;;;;;5032811;28;20417;-86
2021/05/26 07:09:56;;;;;;;6.68;4.53;;;;;;;;;;5033878;28;20041;-85
2021/05/26 07:12:23;;;;;;;8.13;4.82;;;;;;;;;;5032364;28;20391;-86
2021/05/26 07:14:51;;;;;;;6.47;3.85;;;;;;;;;;5033085;28;20132;-86
2021/05/26 07:17:22;;;;;;;5.90;3.40;;;;;;;;;;5033946;28;20080;-87
2021/05/26 07:19:50;;;;;;;5.03;3.63;;;;;;;;;;5033839;28;20445;-86
2021/05/26 07:22:17;;;;;;;6.82;3.60;;;;;;;;;;5033692;28;20061;-84
2021/05/26 07:24:45;;;;;;;8.65;3.25;;;;;;;;;;5033194;28;20544;-85
2021/05/26 07:27:12;;;;;;;6.00;3.20;;;;;;;;;;5033450;28;20738;-85
2021/05/26 07:29:41;;;;;;;7.28;3.17;;;;;;;;;;5033757;28;20132;-83
2021/05/26 07:32:08;;;;;;;6.50;2.75;;;;;;;;;;5031196;28;20107;-86
2021/05/26 07:34:35;;;;;;;7.68;3.58;;;;;;;;;;5031863;28;20132;-85
2021/05/26 07:37:03;;;;;;;8.07;3.35;;;;;;;;;;5033759;28;20054;-85
2021/05/26 07:39:34;;;;;;;3.03;2.60;;;;;;;;;;5033249;28;20092;-84
2021/05/26 07:42:03;;;;;;;4.70;2.97;;;;;;;;;;5032836;28;20056;-84
2021/05/26 07:44:30;;;;;;;3.78;3.35;;;;;;;;;;5031569;28;20498;-85
2021/05/26 07:46:57;;;;;;;6.68;3.30;;;;;;;;;;5032526;28;20081;-85
2021/05/26 07:49:24;;;;;;;5.82;3.53;;;;;;;;;;5032003;28;20725;-88
2021/05/26 07:51:54;;;;;;;7.00;4.25;;;;;;;;;;5033469;28;20092;-88
2021/05/26 07:54:23;;;;;;;8.43;4.82;;;;;;;;;;5031674;28;20049;-87
2021/05/26 07:56:53;;;;;;;6.55;4.55;;;;;;;;;;5032243;28;20053;-86
2021/05/26 07:59:20;;;;;;;7.55;5.38;;;;;;;;;;5033216;28;20045;-88
2021/05/26 08:01:48;;;;;;;8.05;5.72;;;;;;;;;;5032173;28;20072;-88
2021/05/26 08:04:15;;;;;;;14.95;6.40;;;;;;;;;;5033228;28;20088;-88
2021/05/26 08:06:44;;;;;;;10.57;6.80;;;;;;;;;;5027188;28;20133;-88
2021/05/26 08:09:11;;;;;;;7.97;5.68;;;;;;;;;;5018833;28;20512;-88
2021/05/26 08:11:39;;;;;;;11.52;6.47;;;;;;;;;;5031862;28;20452;-87
2021/05/26 08:14:06;;;;;;;11.95;6.53;;;;;;;;;;5032887;28;20065;-87
2021/05/26 08:16:33;;;;;;;7.88;5.80;;;;;;;;;;5017180;28;20491;-88
2021/05/26 08:19:01;;;;;;;7.20;4.72;;;;;;;;;;5022498;28;20056;-89
2021/05/26 08:21:28;;;;;;;6.30;4.38;;;;;;;;;;5031293;28;20081;-88
2021/05/26 08:23:55;;;;;;;4.45;4.05;;;;;;;;;;5031337;28;20153;-89
2021/05/26 08:26:23;;;;;;;5.45;3.28;;;;;;;;;;5032448;28;20049;-88
2021/05/26 08:28:54;;;;;;;4.60;3.15;;;;;;;;;;5031422;28;20080;-88
2021/05/26 08:31:22;;;;;;;13.02;4.00;;;;;;;;;;5032537;28;20464;-89
2021/05/26 08:33:55;;;;;;;3.22;2.17;;;;;;;;;;5030882;28;20053;-88
2021/05/26 08:36:23;;;;;;;7.38;3.13;;;;;;;;;;5027379;28;20058;-85
2021/05/26 08:38:50;;;;;;;7.38;2.80;;;;;;;;;;5010943;28;20081;-86
2021/05/26 08:41:19;;;;;;;4.65;2.95;;;;;;;;;;5011355;28;20104;-88
2021/05/26 08:43:46;;;;;;;3.58;2.40;;;;;;;;;;5029794;28;20669;-88
2021/05/26 08:46:15;;;;;;;3.03;2.05;;;;;;;;;;5032686;28;20045;-88
2021/05/26 08:48:43;;;;;;;6.10;2.50;;;;;;;;;;5030656;28;20063;-87
2021/05/26 08:51:12;;;;;;;3.05;1.75;;;;;;;;;;5012254;28;20085;-88
2021/05/26 08:53:39;;;;;;;7.43;2.30;;;;;;;;;;5010638;28;20875;-87
2021/05/26 08:56:13;;;;;;;3.03;1.88;;;;;;;;;;5012496;28;20133;-89
2021/05/26 08:58:41;;;;;;;2.63;1.80;;;;;;;;;;5012167;28;20725;-85
2021/05/26 09:01:13;;;;;;;4.38;1.80;;;;;;;;;;5010988;28;20049;-86
2021/05/26 09:03:42;;;;;;;5.78;2.65;;;;;;;;;;5026715;28;20093;-86
2021/05/26 09:06:12;;;;;;;6.53;2.70;;;;;;;;;;5027310;28;20082;-86
2021/05/26 09:08:45;;;;;;;3.60;2.42;;;;;;;;;;5011950;28;20095;-85
2021/05/26 09:11:13;;;;;;;7.32;2.67;;;;;;;;;;5010531;28;20053;-84
2021/05/26 09:13:41;;;;;;;4.40;2.35;;;;;;;;;;5010333;28;20050;-86
2021/05/26 09:16:27;;;;;;;3.75;2.63;;;;;;;;;;5011789;28;20129;-87
2021/05/26 09:18:57;;;;;;;2.60;2.10;;;;;;;;;;5010908;28;20049;-86
2021/05/26 09:21:43;;;;;;;8.15;2.70;;;;;;;;;;5012191;28;20050;-87
2021/05/26 09:24:12;;;;;;;;;;;;;;;;;;5011177;28;20054;-86
2021/05/26 09:26:53;;;;;;;4.47;2.30;;;;;;;;;;5023441;28;19979;-85
2021/05/26 09:29:27;;;;;;;3.65;2.65;;;;;;;;;;5030127;28;20489;-85
2021/05/26 09:32:13;;;;;;;4.03;2.22;;;;;;;;;;5031198;28;20095;-87
2021/05/26 09:34:46;;;;;;;4.75;2.17;;;;;;;;;;5030307;28;20149;-89
2021/05/26 09:37:15;;;;;;;3.28;2.00;;;;;;;;;;5029921;28;20461;-87
2021/05/26 09:39:55;;;;;;;3.80;1.77;;;;;;;;;;5031688;28;20045;-87
2021/05/26 09:42:23;;;;;;;3.30;2.25;;;;;;;;;;5031350;28;20057;-87
2021/05/26 09:45:04;;;;;;;3.85;2.85;;;;;;;;;;5013291;28;20495;-86
2021/05/26 09:47:39;;;;;;;2.85;2.63;;;;;;;;;;5011650;28;20046;-86
2021/05/26 09:50:07;;;;;;;;;;;;;;;;;;5012048;28;20050;-87
2021/05/26 09:52:50;;;;;;;5.78;2.50;;;;;;;;;;5010157;28;20020;-87
2021/05/26 09:55:21;;;;;;;3.10;2.60;;;;;;;;;;5011294;28;20138;-87
2021/05/26 09:57:52;;;;;;;7.80;2.90;;;;;;;;;;5010308;28;20100;-87
2021/05/26 10:00:20;;;;;;;3.58;3.00;;;;;;;;;;5010030;28;20112;-86
2021/05/26 10:02:47;;;;;;;5.00;2.50;;;;;;;;;;5011255;28;20539;-86
2021/05/26 10:05:16;;;;;;;5.95;2.75;;;;;;;;;;5023271;28;20793;-84
2021/05/26 10:07:45;;;;;;;8.93;3.15;;;;;;;;;;5028258;28;20088;-86
2021/05/26 10:10:13;;;;;;;8.68;2.95;;;;;;;;;;5029864;28;20099;-86
2021/05/26 10:12:41;;;;;;;6.25;2.78;;;;;;;;;;5032461;28;20546;-85
2021/05/26 10:15:10;;;;;;;5.45;2.60;;;;;;;;;;5033376;28;20045;-85
2021/05/26 10:17:41;;;;;;;6.85;3.17;;;;;;;;;;5034641;28;20545;-85
2021/05/26 10:20:12;;;;;;;5.55;2.90;;;;;;;;;;5034528;28;20054;-85
2021/05/26 10:22:40;;;;;;;8.07;3.50;;;;;;;;;;5026136;28;20478;-84
2021/05/26 10:25:15;;;;;;;9.93;2.85;;;;;;;;;;5013356;28;20915;-84
2021/05/26 10:27:46;;;;;;;6.18;3.25;;;;;;;;;;5013919;28;20060;-84
2021/05/26 10:30:14;;;;;;;6.32;3.55;;;;;;;;;;5013314;28;20052;-85
2021/05/26 10:32:55;;;;;;;7.15;2.90;;;;;;;;;;5014715;28;20387;-85
2021/05/26 10:35:53;;;;;;;20.67;8.15;;;;;;;;;;5013016;28;20053;-84
2021/05/26 10:38:20;;;;;;;6.78;3.08;;;;;;;;;;5013560;28;20054;-85
2021/05/26 10:40:51;;;;;;;6.22;3.35;;;;;;;;;;5013262;28;20688;-85
2021/05/26 10:43:19;;;;;;;9.55;4.55;;;;;;;;;;5013288;28;20136;-85
2021/05/26 10:45:56;;;;;;;10.82;4.25;;;;;;;;;;5014069;28;20495;-84
2021/05/26 10:48:38;;;;;;;7.45;3.38;;;;;;;;;;5014447;28;20092;-85
2021/05/26 10:51:05;;;;;;;3.63;2.50;;;;;;;;;;5014116;28;20069;-85
2021/05/26 10:53:43;;;;;;;3.78;2.78;;;;;;;;;;5028779;28;20523;-86
2021/05/26 10:56:29;;;;;;;8.60;3.65;;;;;;;;;;5033132;28;20053;-86
2021/05/26 10:59:09;;;;;;;6.82;2.97;;;;;;;;;;5034189;28;20077;-86
2021/05/26 11:01:55;;;;;;;4.75;2.80;;;;;;;;;;5023111;28;20483;-85
2021/05/26 11:04:22;;;;;;;5.75;3.13;;;;;;;;;;5033437;28;20081;-86
2021/05/26 11:06:50;;;;;;;8.02;2.47;;;;;;;;;;5033997;28;20756;-87
2021/05/26 11:09:17;;;;;;;4.85;2.72;;;;;;;;;;5032991;28;20144;-87
2021/05/26 11:11:45;;;;;;;7.90;3.05;;;;;;;;;;5032756;28;20084;-85
2021/05/26 11:14:25;;;;;;;16.98;3.55;;;;;;;;;;5033476;28;20132;-85
2021/05/26 11:17:02;;;;;;;5.65;3.25;;;;;;;;;;5032134;28;20463;-83
2021/05/26 11:19:30;;;;;;;9.18;3.15;;;;;;;;;;5032186;28;20076;-84
2021/05/26 11:22:01;;;;;;;5.20;3.17;;;;;;;;;;5033295;28;20049;-84
2021/05/26 11:24:30;;;;;;;4.88;2.85;;;;;;;;;;5031919;28;20179;-84
2021/05/26 11:26:57;;;;;;;7.78;3.55;;;;;;;;;;5030908;28;20084;-84
2021/05/26 11:29:27;;;;;;;5.80;3.63;;;;;;;;;;5033165;28;20104;-84
2021/05/26 11:32:06;;;;;;;5.13;3.47;;;;;;;;;;5031570;28;20088;-84
2021/05/26 11:34:34;;;;;;;4.72;2.90;;;;;;;;;;5044152;28;20136;-84
2021/05/26 11:37:02;;;;;;;6.90;3.15;;;;;;;;;;5024780;28;20059;-83
2021/05/26 11:39:32;;;;;;;5.78;3.58;;;;;;;;;;5031506;28;20536;-83
2021/05/26 11:42:30;;;;;;;7.18;3.85;;;;;;;;;;5032855;28;20102;-83
2021/05/26 11:44:57;;;;;;;9.63;3.50;;;;;;;;;;5031722;28;20048;-85
2021/05/26 11:47:34;;;;;;;12.05;3.45;;;;;;;;;;5031468;28;20054;-84
2021/05/26 11:50:02;;;;;;;5.20;3.40;;;;;;;;;;5031769;28;20541;-85
2021/05/26 11:52:29;;;;;;;11.98;4.00;;;;;;;;;;5031473;28;20445;-84
2021/05/26 11:54:58;;;;;;;7.90;4.30;;;;;;;;;;5031496;28;20103;-84
2021/05/26 11:57:32;;;;;;;7.30;3.15;;;;;;;;;;5031698;28;20716;-85
2021/05/26 12:00:00;;;;;;;4.78;3.00;;;;;;;;;;5032651;28;20421;-85
2021/05/26 12:02:29;;;;;;;7.13;3.90;;;;;;;;;;5031411;28;20042;-85
2021/05/26 12:04:57;;;;;;;6.40;2.83;;;;;;;;;;5017931;28;20096;-85
2021/05/26 12:07:24;;;;;;;5.60;2.20;;;;;;;;;;5011520;28;20045;-85
2021/05/26 12:09:59;;;;;;;2.85;2.20;;;;;;;;;;5012467;28;20054;-85
2021/05/26 12:12:32;;;;;;;5.90;3.00;;;;;;;;;;5012564;28;20443;-86
2021/05/26 12:15:01;;;;;;;7.40;2.72;;;;;;;;;;5027276;28;20584;-85
2021/05/26 12:17:28;;;;;;;3.72;2.17;;;;;;;;;;5032078;28;20069;-85
2021/05/26 12:19:56;;;;;;;2.75;2.25;;;;;;;;;;5013209;28;20499;-85
2021/05/26 12:22:26;;;;;;;21.13;4.45;;;;;;;;;;5011227;28;20054;-85
2021/05/26 12:25:01;;;;;;;18.15;3.95;;;;;;;;;;5010621;28;20519;-86
2021/05/26 12:27:35;;;;;;;5.25;3.50;;;;;;;;;;5011279;28;20050;-83
2021/05/26 12:30:18;;;;;;;6.90;2.90;;;;;;;;;;5011604;28;20699;-84
2021/05/26 12:32:45;;;;;;;6.55;3.78;;;;;;;;;;5021526;28;20049;-84
2021/05/26 12:35:13;;;;;;;8.25;4.50;;;;;;;;;;5046483;28;20498;-84
2021/05/26 12:37:41;;;;;;;8.80;4.47;;;;;;;;;;5046341;28;20053;-83
2021/05/26 12:40:09;;;;;;;10.25;3.40;;;;;;;;;;5043538;28;20073;-82
2021/05/26 12:42:37;;;;;;;15.68;5.95;;;;;;;;;;5028235;28;20140;-83
2021/05/26 12:45:22;;;;;;;7.65;3.20;;;;;;;;;;5026011;28;20046;-83
2021/05/26 12:47:49;;;;;;;8.25;4.00;;;;;;;;;;5026827;28;20082;-82
2021/05/26 12:50:22;;;;;;;7.97;3.30;;;;;;;;;;5026761;28;20089;-82
2021/05/26 12:52:52;;;;;;;6.82;3.17;;;;;;;;;;5011629;28;20572;-82
2021/05/26 12:55:23;;;;;;;7.72;3.58;;;;;;;;;;5029985;28;20148;-82
2021/05/26 12:58:00;;;;;;;7.85;3.88;;;;;;;;;;5029615;28;20088;-81
2021/05/26 13:00:28;;;;;;;6.90;4.25;;;;;;;;;;5031253;28;20049;-81
2021/05/26 13:03:05;;;;;;;6.10;3.95;;;;;;;;;;5029219;28;20088;-81
2021/05/26 13:05:34;;;;;;;8.18;4.63;;;;;;;;;;5028476;28;20072;-81
2021/05/26 13:08:12;;;;;;;8.68;4.40;;;;;;;;;;5031245;28;20041;-82
2021/05/26 13:10:57;;;;;;;8.50;4.85;;;;;;;;;;5032358;28;20093;-81
2021/05/26 13:13:26;;;;;;;9.50;4.95;;;;;;;;;;5031241;28;20111;-81
2021/05/26 13:15:54;;;;;;;7.72;4.85;;;;;;;;;;5022942;28;20108;-81
2021/05/26 13:18:28;;;;;;;9.95;4.22;;;;;;;;;;5010033;28;20542;-81
2021/05/26 13:20:57;;;;;;;7.10;4.53;;;;;;;;;;5010301;28;20495;-82
2021/05/26 13:23:24;;;;;;;16.23;8.13;;;;;;;;;;5011108;28;20053;-81
2021/05/26 13:25:54;;;;;;;11.43;5.38;;;;;;;;;;5030919;28;20487;-80
2021/05/26 13:28:26;;;;;;;8.88;5.82;;;;;;;;;;5031202;28;20045;-81
2021/05/26 13:30:54;;;;;;;5.25;4.43;;;;;;;;;;5031956;28;20383;-86
2021/05/26 13:33:22;;;;;;;11.30;4.82;;;;;;;;;;5032943;28;20046;-88
2021/05/26 13:35:58;;;;;;;8.65;4.45;;;;;;;;;;5032509;28;20546;-89
2021/05/26 13:38:25;;;;;;;10.25;4.50;;;;;;;;;;5030785;28;20089;-90
2021/05/26 13:40:53;;;;;;;9.27;4.65;;;;;;;;;;5029922;28;20080;-88
2021/05/26 13:43:23;;;;;;;9.70;4.85;;;;;;;;;;5029520;28;20084;-87
2021/05/26 13:46:05;;;;;;;10.88;4.63;;;;;;;;;;5029633;28;20133;-88
2021/05/26 13:48:33;;;;;;;8.23;5.20;;;;;;;;;;5018061;28;20494;-87
2021/05/26 13:51:00;;;;;;;7.75;5.30;;;;;;;;;;5011262;28;20060;-86
2021/05/26 13:53:30;;;;;;;9.98;4.38;;;;;;;;;;5009884;28;20132;-87
2021/05/26 13:55:57;;;;;;;7.40;4.43;;;;;;;;;;5009968;28;20053;-87
2021/05/26 13:58:24;;;;;;;10.88;4.00;;;;;;;;;;5010786;28;20104;-87
2021/05/26 14:00:52;;;;;;;9.25;4.32;;;;;;;;;;5009707;28;20506;-87
2021/05/26 14:03:27;;;;;;;10.63;4.90;;;;;;;;;;5026296;28;20747;-86
2021/05/26 14:05:54;;;;;;;9.50;4.50;;;;;;;;;;5028181;28;20045;-86
2021/05/26 14:08:21;;;;;;;7.22;4.57;;;;;;;;;;5029094;28;20755;-86
2021/05/26 14:10:48;;;;;;;8.32;4.63;;;;;;;;;;5030956;28;20107;-86
2021/05/26 14:13:16;;;;;;;7.78;4.88;;;;;;;;;;5029504;28;20128;-86
2021/05/26 14:15:43;;;;;;;11.32;5.57;;;;;;;;;;5030200;28;20085;-87
2021/05/26 14:18:10;;;;;;;16.13;6.35;;;;;;;;;;5029377;28;20111;-83
2021/05/26 14:20:57;;;;;;;20.05;4.30;;;;;;;;;;5029519;28;20050;-89
2021/05/26 14:23:24;;;;;;;13.65;4.63;;;;;;;;;;5029278;28;20565;-84
2021/05/26 14:25:52;;;;;;;12.48;4.18;;;;;;;;;;5029226;28;20584;-84
2021/05/26 14:28:19;;;;;;;12.27;4.15;;;;;;;;;;5029647;28;20073;-83
2021/05/26 14:30:54;;;;;;;13.43;5.15;;;;;;;;;;5029443;28;20669;-82
2021/05/26 14:33:21;;;;;;;10.30;4.95;;;;;;;;;;5029480;28;20076;-83
2021/05/26 14:35:50;;;;;;;8.02;4.80;;;;;;;;;;5029250;28;20081;-84
2021/05/26 14:38:31;;;;;;;9.32;4.57;;;;;;;;;;5029293;28;20144;-84
2021/05/26 14:41:00;;;;;;;10.52;5.78;;;;;;;;;;5031020;28;20914;-83
2021/05/26 14:43:27;;;;;;;8.93;5.07;;;;;;;;;;5030835;28;20099;-85
2021/05/26 14:45:56;;;;;;;11.77;5.65;;;;;;;;;;5030762;28;20053;-83
2021/05/26 14:48:23;;;;;;;7.53;4.75;;;;;;;;;;5029146;28;20064;-84
2021/05/26 14:50:51;;;;;;;9.50;4.85;;;;;;;;;;5030809;28;20064;-83
2021/05/26 14:53:19;;;;;;;6.63;4.75;;;;;;;;;;5030608;28;20088;-84
2021/05/26 14:55:46;;;;;;;13.18;5.85;;;;;;;;;;5029266;28;20129;-85